sensor_id;sensor_type;location;lat;lon;timestamp;P1;durP1;ratioP1;P2;durP2;ratioP2
24761;SDS011;12865;51.934;10.330;2023-03-01T00:02:13;9.18;;;6.50;;
24761;SDS011;12865;51.934;10.330;2023-03-01T00:04:58;8.30;;;6.90;;
24761;SDS011;12865;51.934;10.330;2023-03-01T00:07:44;8.57;;;6.80;;
24761;SDS011;12865;51.934;10.330;2023-03-01T00:10:30;9.73;;;6.90;;
24761;SDS011;12865;51.934;10.330;2023-03-01T00:13:15;7.80;;;6.28;;
24761;SDS011;12865;51.934;10.330;2023-03-01T00:16:04;7.82;;;7.03;;
24761;SDS011;12865;51.934;10.330;2023-03-01T00:18:53;6.97;;;6.25;;
24761;SDS011;12865;51.934;10.330;2023-03-01T00:21:39;10.02;;;6.43;;
24761;SDS011;12865;51.934;10.330;2023-03-01T00:24:25;10.27;;;6.90;;
24761;SDS011;12865;51.934;10.330;2023-03-01T00:27:11;9.30;;;7.20;;
24761;SDS011;12865;51.934;10.330;2023-03-01T00:29:57;9.45;;;6.32;;
24761;SDS011;12865;51.934;10.330;2023-03-01T00:32:43;10.23;;;6.82;;
24761;SDS011;12865;51.934;10.330;2023-03-01T00:35:28;8.95;;;6.75;;
24761;SDS011;12865;51.934;10.330;2023-03-01T00:38:14;7.95;;;6.03;;
24761;SDS011;12865;51.934;10.330;2023-03-01T00:41:18;8.23;;;6.35;;
24761;SDS011;12865;51.934;10.330;2023-03-01T00:44:05;8.45;;;6.80;;
24761;SDS011;12865;51.934;10.330;2023-03-01T00:46:50;11.35;;;7.10;;
24761;SDS011;12865;51.934;10.330;2023-03-01T00:49:36;9.60;;;6.68;;
24761;SDS011;12865;51.934;10.330;2023-03-01T00:52:22;9.48;;;6.57;;
24761;SDS011;12865;51.934;10.330;2023-03-01T00:55:07;8.32;;;6.90;;
24761;SDS011;12865;51.934;10.330;2023-03-01T00:57:53;9.65;;;5.95;;
24761;SDS011;12865;51.934;10.330;2023-03-01T01:00:39;8.77;;;6.93;;
24761;SDS011;12865;51.934;10.330;2023-03-01T01:03:25;11.00;;;7.00;;
24761;SDS011;12865;51.934;10.330;2023-03-01T01:06:14;10.07;;;7.53;;
24761;SDS011;12865;51.934;10.330;2023-03-01T01:09:06;11.55;;;7.75;;
24761;SDS011;12865;51.934;10.330;2023-03-01T01:11:52;8.52;;;6.95;;
24761;SDS011;12865;51.934;10.330;2023-03-01T01:14:38;9.75;;;7.15;;
24761;SDS011;12865;51.934;10.330;2023-03-01T01:17:23;8.38;;;6.55;;
24761;SDS011;12865;51.934;10.330;2023-03-01T01:20:09;7.88;;;6.95;;
24761;SDS011;12865;51.934;10.330;2023-03-01T01:22:55;9.75;;;7.47;;
24761;SDS011;12865;51.934;10.330;2023-03-01T01:25:41;8.13;;;7.18;;
24761;SDS011;12865;51.934;10.330;2023-03-01T01:28:27;8.57;;;6.63;;
24761;SDS011;12865;51.934;10.330;2023-03-01T01:31:12;7.57;;;6.32;;
24761;SDS011;12865;51.934;10.330;2023-03-01T01:34:00;9.30;;;7.10;;
24761;SDS011;12865;51.934;10.330;2023-03-01T01:36:48;9.50;;;7.00;;
24761;SDS011;12865;51.934;10.330;2023-03-01T01:39:39;7.78;;;6.95;;
24761;SDS011;12865;51.934;10.330;2023-03-01T01:42:24;10.13;;;7.45;;
24761;SDS011;12865;51.934;10.330;2023-03-01T01:48:20;7.65;;;6.80;;
24761;SDS011;12865;51.934;10.330;2023-03-01T01:51:17;7.32;;;6.60;;
24761;SDS011;12865;51.934;10.330;2023-03-01T01:54:10;8.57;;;6.75;;
24761;SDS011;12865;51.934;10.330;2023-03-01T01:57:00;7.65;;;6.70;;
24761;SDS011;12865;51.934;10.330;2023-03-01T01:59:53;8.80;;;6.82;;
24761;SDS011;12865;51.934;10.330;2023-03-01T02:02:42;8.63;;;7.10;;
24761;SDS011;12865;51.934;10.330;2023-03-01T02:08:29;7.97;;;6.72;;
24761;SDS011;12865;51.934;10.330;2023-03-01T02:11:17;9.48;;;7.60;;
24761;SDS011;12865;51.934;10.330;2023-03-01T02:14:03;8.45;;;7.03;;
24761;SDS011;12865;51.934;10.330;2023-03-01T02:16:49;9.52;;;7.60;;
24761;SDS011;12865;51.934;10.330;2023-03-01T02:22:32;9.07;;;7.50;;
24761;SDS011;12865;51.934;10.330;2023-03-01T02:31:00;7.57;;;6.68;;
24761;SDS011;12865;51.934;10.330;2023-03-01T02:34:05;9.50;;;7.47;;
24761;SDS011;12865;51.934;10.330;2023-03-01T02:36:53;7.95;;;7.15;;
24761;SDS011;12865;51.934;10.330;2023-03-01T02:39:44;9.68;;;6.18;;
24761;SDS011;12865;51.934;10.330;2023-03-01T02:42:35;8.68;;;6.70;;
24761;SDS011;12865;51.934;10.330;2023-03-01T02:45:26;9.25;;;6.88;;
24761;SDS011;12865;51.934;10.330;2023-03-01T02:48:12;8.68;;;6.93;;
24761;SDS011;12865;51.934;10.330;2023-03-01T02:51:05;9.48;;;7.65;;
24761;SDS011;12865;51.934;10.330;2023-03-01T02:56:55;11.55;;;7.45;;
24761;SDS011;12865;51.934;10.330;2023-03-01T02:59:41;10.68;;;7.40;;
24761;SDS011;12865;51.934;10.330;2023-03-01T03:02:29;9.50;;;7.72;;
24761;SDS011;12865;51.934;10.330;2023-03-01T03:05:22;8.98;;;7.28;;
24761;SDS011;12865;51.934;10.330;2023-03-01T03:08:11;8.02;;;6.93;;
24761;SDS011;12865;51.934;10.330;2023-03-01T03:10:57;7.30;;;6.60;;
24761;SDS011;12865;51.934;10.330;2023-03-01T03:13:42;8.25;;;6.95;;
24761;SDS011;12865;51.934;10.330;2023-03-01T03:16:33;8.35;;;6.68;;
24761;SDS011;12865;51.934;10.330;2023-03-01T03:19:18;8.45;;;6.63;;
24761;SDS011;12865;51.934;10.330;2023-03-01T03:22:04;8.18;;;7.20;;
24761;SDS011;12865;51.934;10.330;2023-03-01T03:24:50;9.90;;;7.00;;
24761;SDS011;12865;51.934;10.330;2023-03-01T03:27:36;8.32;;;6.93;;
24761;SDS011;12865;51.934;10.330;2023-03-01T03:30:27;8.55;;;7.15;;
24761;SDS011;12865;51.934;10.330;2023-03-01T03:33:15;8.07;;;6.72;;
24761;SDS011;12865;51.934;10.330;2023-03-01T03:36:00;8.82;;;6.57;;
24761;SDS011;12865;51.934;10.330;2023-03-01T03:38:46;8.00;;;7.18;;
24761;SDS011;12865;51.934;10.330;2023-03-01T03:41:34;10.15;;;7.50;;
24761;SDS011;12865;51.934;10.330;2023-03-01T03:44:20;9.45;;;6.97;;
24761;SDS011;12865;51.934;10.330;2023-03-01T03:47:06;8.77;;;7.40;;
24761;SDS011;12865;51.934;10.330;2023-03-01T03:49:51;8.38;;;7.15;;
24761;SDS011;12865;51.934;10.330;2023-03-01T03:52:37;10.55;;;7.00;;
24761;SDS011;12865;51.934;10.330;2023-03-01T03:55:23;8.25;;;6.80;;
24761;SDS011;12865;51.934;10.330;2023-03-01T03:58:13;9.57;;;7.07;;
24761;SDS011;12865;51.934;10.330;2023-03-01T04:00:59;8.75;;;7.00;;
24761;SDS011;12865;51.934;10.330;2023-03-01T04:03:46;7.75;;;6.55;;
24761;SDS011;12865;51.934;10.330;2023-03-01T04:06:39;9.25;;;7.47;;
24761;SDS011;12865;51.934;10.330;2023-03-01T04:09:25;9.50;;;6.80;;
24761;SDS011;12865;51.934;10.330;2023-03-01T04:12:10;9.52;;;7.43;;
24761;SDS011;12865;51.934;10.330;2023-03-01T04:14:56;9.02;;;7.05;;
24761;SDS011;12865;51.934;10.330;2023-03-01T04:17:43;10.57;;;7.75;;
24761;SDS011;12865;51.934;10.330;2023-03-01T04:20:31;7.38;;;5.63;;
24761;SDS011;12865;51.934;10.330;2023-03-01T04:26:06;9.00;;;7.88;;
24761;SDS011;12865;51.934;10.330;2023-03-01T04:28:52;9.80;;;7.85;;
24761;SDS011;12865;51.934;10.330;2023-03-01T04:31:37;9.52;;;7.70;;
24761;SDS011;12865;51.934;10.330;2023-03-01T04:34:23;9.00;;;7.25;;
24761;SDS011;12865;51.934;10.330;2023-03-01T04:37:09;9.05;;;6.88;;
24761;SDS011;12865;51.934;10.330;2023-03-01T04:39:54;8.88;;;7.93;;
24761;SDS011;12865;51.934;10.330;2023-03-01T04:42:40;8.77;;;6.68;;
24761;SDS011;12865;51.934;10.330;2023-03-01T04:45:26;9.80;;;7.20;;
24761;SDS011;12865;51.934;10.330;2023-03-01T04:48:13;8.85;;;7.13;;
24761;SDS011;12865;51.934;10.330;2023-03-01T04:50:59;9.15;;;6.90;;
24761;SDS011;12865;51.934;10.330;2023-03-01T04:53:45;9.85;;;7.07;;
24761;SDS011;12865;51.934;10.330;2023-03-01T04:56:31;9.50;;;7.25;;
24761;SDS011;12865;51.934;10.330;2023-03-01T04:59:17;11.15;;;7.38;;
24761;SDS011;12865;51.934;10.330;2023-03-01T05:02:02;11.63;;;7.57;;
24761;SDS011;12865;51.934;10.330;2023-03-01T05:04:48;9.32;;;7.32;;
24761;SDS011;12865;51.934;10.330;2023-03-01T05:07:34;8.13;;;7.00;;
24761;SDS011;12865;51.934;10.330;2023-03-01T05:10:20;13.90;;;7.47;;
24761;SDS011;12865;51.934;10.330;2023-03-01T05:13:06;9.07;;;6.72;;
24761;SDS011;12865;51.934;10.330;2023-03-01T05:15:55;7.93;;;6.90;;
24761;SDS011;12865;51.934;10.330;2023-03-01T05:18:43;9.45;;;7.22;;
24761;SDS011;12865;51.934;10.330;2023-03-01T05:21:29;10.40;;;7.10;;
24761;SDS011;12865;51.934;10.330;2023-03-01T05:24:14;7.68;;;6.80;;
24761;SDS011;12865;51.934;10.330;2023-03-01T05:27:01;10.32;;;8.38;;
24761;SDS011;12865;51.934;10.330;2023-03-01T05:29:47;9.10;;;7.10;;
24761;SDS011;12865;51.934;10.330;2023-03-01T05:32:33;9.40;;;7.50;;
24761;SDS011;12865;51.934;10.330;2023-03-01T05:35:18;11.25;;;6.95;;
24761;SDS011;12865;51.934;10.330;2023-03-01T05:38:04;9.02;;;6.85;;
24761;SDS011;12865;51.934;10.330;2023-03-01T05:40:50;8.90;;;7.55;;
24761;SDS011;12865;51.934;10.330;2023-03-01T05:43:35;11.65;;;7.60;;
24761;SDS011;12865;51.934;10.330;2023-03-01T05:46:21;10.73;;;8.38;;
24761;SDS011;12865;51.934;10.330;2023-03-01T05:49:09;14.57;;;9.67;;
24761;SDS011;12865;51.934;10.330;2023-03-01T05:51:55;14.90;;;9.85;;
24761;SDS011;12865;51.934;10.330;2023-03-01T05:54:40;10.73;;;8.38;;
24761;SDS011;12865;51.934;10.330;2023-03-01T05:57:27;10.27;;;7.53;;
24761;SDS011;12865;51.934;10.330;2023-03-01T06:00:15;9.23;;;7.93;;
24761;SDS011;12865;51.934;10.330;2023-03-01T06:03:03;8.05;;;6.72;;
24761;SDS011;12865;51.934;10.330;2023-03-01T06:05:49;11.63;;;8.50;;
24761;SDS011;12865;51.934;10.330;2023-03-01T06:08:34;10.95;;;7.70;;
24761;SDS011;12865;51.934;10.330;2023-03-01T06:11:20;16.10;;;10.60;;
24761;SDS011;12865;51.934;10.330;2023-03-01T06:14:07;16.30;;;10.75;;
24761;SDS011;12865;51.934;10.330;2023-03-01T06:16:53;11.27;;;9.02;;
24761;SDS011;12865;51.934;10.330;2023-03-01T06:19:39;11.50;;;8.52;;
24761;SDS011;12865;51.934;10.330;2023-03-01T06:22:24;14.80;;;8.90;;
24761;SDS011;12865;51.934;10.330;2023-03-01T06:25:11;12.88;;;9.13;;
24761;SDS011;12865;51.934;10.330;2023-03-01T06:27:58;10.13;;;8.50;;
24761;SDS011;12865;51.934;10.330;2023-03-01T06:30:43;11.32;;;8.50;;
24761;SDS011;12865;51.934;10.330;2023-03-01T06:33:29;10.38;;;8.38;;
24761;SDS011;12865;51.934;10.330;2023-03-01T06:36:15;10.25;;;8.63;;
24761;SDS011;12865;51.934;10.330;2023-03-01T06:39:03;7.85;;;6.18;;
24761;SDS011;12865;51.934;10.330;2023-03-01T06:41:50;12.20;;;7.90;;
24761;SDS011;12865;51.934;10.330;2023-03-01T06:44:36;11.82;;;9.27;;
24761;SDS011;12865;51.934;10.330;2023-03-01T06:47:23;10.32;;;8.60;;
24761;SDS011;12865;51.934;10.330;2023-03-01T06:50:08;15.05;;;11.50;;
24761;SDS011;12865;51.934;10.330;2023-03-01T06:52:55;14.32;;;11.40;;
24761;SDS011;12865;51.934;10.330;2023-03-01T06:55:42;12.68;;;11.48;;
24761;SDS011;12865;51.934;10.330;2023-03-01T06:58:27;13.32;;;11.15;;
24761;SDS011;12865;51.934;10.330;2023-03-01T07:01:13;12.73;;;10.50;;
24761;SDS011;12865;51.934;10.330;2023-03-01T07:03:59;11.57;;;9.35;;
24761;SDS011;12865;51.934;10.330;2023-03-01T07:06:44;12.57;;;9.25;;
24761;SDS011;12865;51.934;10.330;2023-03-01T07:09:30;11.52;;;8.55;;
24761;SDS011;12865;51.934;10.330;2023-03-01T07:12:16;11.75;;;8.63;;
24761;SDS011;12865;51.934;10.330;2023-03-01T07:15:01;12.10;;;8.07;;
24761;SDS011;12865;51.934;10.330;2023-03-01T07:17:47;10.13;;;8.80;;
24761;SDS011;12865;51.934;10.330;2023-03-01T07:20:35;9.45;;;8.30;;
24761;SDS011;12865;51.934;10.330;2023-03-01T07:23:21;12.38;;;8.73;;
24761;SDS011;12865;51.934;10.330;2023-03-01T07:26:07;10.90;;;8.07;;
24761;SDS011;12865;51.934;10.330;2023-03-01T07:28:52;9.93;;;8.45;;
24761;SDS011;12865;51.934;10.330;2023-03-01T07:31:38;10.40;;;7.82;;
24761;SDS011;12865;51.934;10.330;2023-03-01T07:34:24;11.80;;;7.93;;
24761;SDS011;12865;51.934;10.330;2023-03-01T07:37:09;8.65;;;7.05;;
24761;SDS011;12865;51.934;10.330;2023-03-01T07:39:55;12.15;;;9.65;;
24761;SDS011;12865;51.934;10.330;2023-03-01T07:42:41;11.75;;;8.07;;
24761;SDS011;12865;51.934;10.330;2023-03-01T07:45:27;9.68;;;6.93;;
24761;SDS011;12865;51.934;10.330;2023-03-01T07:48:13;12.35;;;8.27;;
24761;SDS011;12865;51.934;10.330;2023-03-01T07:51:03;12.55;;;7.75;;
24761;SDS011;12865;51.934;10.330;2023-03-01T07:53:50;17.60;;;9.25;;
24761;SDS011;12865;51.934;10.330;2023-03-01T07:56:35;14.73;;;9.35;;
24761;SDS011;12865;51.934;10.330;2023-03-01T07:59:21;11.95;;;7.88;;
24761;SDS011;12865;51.934;10.330;2023-03-01T08:02:09;12.85;;;8.32;;
24761;SDS011;12865;51.934;10.330;2023-03-01T08:04:55;12.30;;;8.43;;
24761;SDS011;12865;51.934;10.330;2023-03-01T08:07:41;13.40;;;8.35;;
24761;SDS011;12865;51.934;10.330;2023-03-01T08:10:27;16.27;;;10.75;;
24761;SDS011;12865;51.934;10.330;2023-03-01T08:13:12;14.25;;;10.43;;
24761;SDS011;12865;51.934;10.330;2023-03-01T08:16:02;15.95;;;11.25;;
24761;SDS011;12865;51.934;10.330;2023-03-01T08:18:48;12.20;;;8.82;;
24761;SDS011;12865;51.934;10.330;2023-03-01T08:21:34;14.55;;;11.15;;
24761;SDS011;12865;51.934;10.330;2023-03-01T08:24:20;14.85;;;10.98;;
24761;SDS011;12865;51.934;10.330;2023-03-01T08:27:06;17.85;;;10.95;;
24761;SDS011;12865;51.934;10.330;2023-03-01T08:29:51;14.07;;;11.18;;
24761;SDS011;12865;51.934;10.330;2023-03-01T08:32:38;14.15;;;10.50;;
24761;SDS011;12865;51.934;10.330;2023-03-01T08:35:24;14.43;;;10.68;;
24761;SDS011;12865;51.934;10.330;2023-03-01T08:38:09;14.40;;;11.18;;
24761;SDS011;12865;51.934;10.330;2023-03-01T08:40:55;14.45;;;11.02;;
24761;SDS011;12865;51.934;10.330;2023-03-01T08:43:45;16.42;;;10.73;;
24761;SDS011;12865;51.934;10.330;2023-03-01T08:46:35;15.73;;;10.50;;
24761;SDS011;12865;51.934;10.330;2023-03-01T08:49:25;18.08;;;11.65;;
24761;SDS011;12865;51.934;10.330;2023-03-01T08:52:11;19.00;;;14.15;;
24761;SDS011;12865;51.934;10.330;2023-03-01T08:54:57;12.40;;;10.90;;
24761;SDS011;12865;51.934;10.330;2023-03-01T08:57:43;13.48;;;10.43;;
24761;SDS011;12865;51.934;10.330;2023-03-01T09:00:29;17.30;;;13.13;;
24761;SDS011;12865;51.934;10.330;2023-03-01T09:03:15;12.52;;;10.55;;
24761;SDS011;12865;51.934;10.330;2023-03-01T09:06:01;17.33;;;13.93;;
24761;SDS011;12865;51.934;10.330;2023-03-01T09:08:48;13.20;;;9.85;;
24761;SDS011;12865;51.934;10.330;2023-03-01T09:11:35;16.95;;;11.65;;
24761;SDS011;12865;51.934;10.330;2023-03-01T09:14:20;13.27;;;9.32;;
24761;SDS011;12865;51.934;10.330;2023-03-01T09:17:06;14.43;;;9.65;;
24761;SDS011;12865;51.934;10.330;2023-03-01T09:19:51;19.88;;;12.20;;
24761;SDS011;12865;51.934;10.330;2023-03-01T09:22:37;14.55;;;10.70;;
24761;SDS011;12865;51.934;10.330;2023-03-01T09:25:23;16.13;;;10.73;;
24761;SDS011;12865;51.934;10.330;2023-03-01T09:28:09;14.00;;;10.50;;
24761;SDS011;12865;51.934;10.330;2023-03-01T09:30:59;15.73;;;10.52;;
24761;SDS011;12865;51.934;10.330;2023-03-01T09:33:46;15.63;;;10.70;;
24761;SDS011;12865;51.934;10.330;2023-03-01T09:36:34;15.30;;;10.25;;
24761;SDS011;12865;51.934;10.330;2023-03-01T09:39:20;13.38;;;10.43;;
24761;SDS011;12865;51.934;10.330;2023-03-01T09:42:06;13.27;;;10.13;;
24761;SDS011;12865;51.934;10.330;2023-03-01T09:44:53;13.27;;;9.65;;
24761;SDS011;12865;51.934;10.330;2023-03-01T09:47:43;16.10;;;10.15;;
24761;SDS011;12865;51.934;10.330;2023-03-01T09:50:32;13.23;;;9.40;;
24761;SDS011;12865;51.934;10.330;2023-03-01T09:53:31;11.05;;;8.32;;
24761;SDS011;12865;51.934;10.330;2023-03-01T09:56:20;12.07;;;7.60;;
24761;SDS011;12865;51.934;10.330;2023-03-01T09:59:26;10.43;;;6.72;;
24761;SDS011;12865;51.934;10.330;2023-03-01T10:02:30;11.63;;;7.38;;
24761;SDS011;12865;51.934;10.330;2023-03-01T10:11:25;10.13;;;6.80;;
24761;SDS011;12865;51.934;10.330;2023-03-01T10:17:30;13.60;;;8.05;;
24761;SDS011;12865;51.934;10.330;2023-03-01T10:20:22;12.63;;;7.57;;
24761;SDS011;12865;51.934;10.330;2023-03-01T10:23:10;10.00;;;7.73;;
24761;SDS011;12865;51.934;10.330;2023-03-01T10:31:46;11.68;;;7.03;;
24761;SDS011;12865;51.934;10.330;2023-03-01T10:34:34;9.68;;;6.85;;
24761;SDS011;12865;51.934;10.330;2023-03-01T10:37:21;10.88;;;8.00;;
24761;SDS011;12865;51.934;10.330;2023-03-01T10:40:09;9.50;;;7.40;;
24761;SDS011;12865;51.934;10.330;2023-03-01T10:43:00;11.23;;;7.25;;
24761;SDS011;12865;51.934;10.330;2023-03-01T10:45:49;11.20;;;7.55;;
24761;SDS011;12865;51.934;10.330;2023-03-01T10:48:34;11.85;;;8.25;;
24761;SDS011;12865;51.934;10.330;2023-03-01T10:51:20;10.80;;;7.72;;
24761;SDS011;12865;51.934;10.330;2023-03-01T10:57:05;10.70;;;7.15;;
24761;SDS011;12865;51.934;10.330;2023-03-01T11:00:00;14.02;;;8.15;;
24761;SDS011;12865;51.934;10.330;2023-03-01T11:03:02;10.27;;;7.60;;
24761;SDS011;12865;51.934;10.330;2023-03-01T11:05:57;11.70;;;7.95;;
24761;SDS011;12865;51.934;10.330;2023-03-01T11:09:01;13.02;;;8.30;;
24761;SDS011;12865;51.934;10.330;2023-03-01T11:12:00;13.10;;;8.43;;
24761;SDS011;12865;51.934;10.330;2023-03-01T11:14:53;11.13;;;7.75;;
24761;SDS011;12865;51.934;10.330;2023-03-01T11:17:40;16.15;;;11.38;;
24761;SDS011;12865;51.934;10.330;2023-03-01T11:20:32;10.15;;;7.32;;
24761;SDS011;12865;51.934;10.330;2023-03-01T11:23:20;13.00;;;11.05;;
24761;SDS011;12865;51.934;10.330;2023-03-01T11:26:08;12.57;;;7.38;;
24761;SDS011;12865;51.934;10.330;2023-03-01T11:28:55;10.82;;;7.93;;
24761;SDS011;12865;51.934;10.330;2023-03-01T11:31:45;13.90;;;10.82;;
24761;SDS011;12865;51.934;10.330;2023-03-01T11:41:08;9.75;;;7.18;;
24761;SDS011;12865;51.934;10.330;2023-03-01T11:44:03;10.05;;;7.05;;
24761;SDS011;12865;51.934;10.330;2023-03-01T11:50:10;8.27;;;6.75;;
24761;SDS011;12865;51.934;10.330;2023-03-01T12:02:34;9.82;;;6.90;;
24761;SDS011;12865;51.934;10.330;2023-03-01T12:08:46;8.07;;;6.60;;
24761;SDS011;12865;51.934;10.330;2023-03-01T12:15:17;8.73;;;5.93;;
24761;SDS011;12865;51.934;10.330;2023-03-01T12:24:10;11.30;;;6.65;;
24761;SDS011;12865;51.934;10.330;2023-03-01T12:27:21;11.57;;;6.50;;
24761;SDS011;12865;51.934;10.330;2023-03-01T12:30:25;10.35;;;7.13;;
24761;SDS011;12865;51.934;10.330;2023-03-01T12:36:39;10.10;;;5.90;;
24761;SDS011;12865;51.934;10.330;2023-03-01T12:42:48;8.13;;;5.78;;
24761;SDS011;12865;51.934;10.330;2023-03-01T12:45:42;8.65;;;5.85;;
24761;SDS011;12865;51.934;10.330;2023-03-01T12:48:43;11.88;;;8.63;;
24761;SDS011;12865;51.934;10.330;2023-03-01T12:51:36;8.32;;;6.15;;
24761;SDS011;12865;51.934;10.330;2023-03-01T12:54:30;8.85;;;6.57;;
24761;SDS011;12865;51.934;10.330;2023-03-01T12:57:21;9.35;;;5.90;;
24761;SDS011;12865;51.934;10.330;2023-03-01T13:00:17;8.63;;;6.22;;
24761;SDS011;12865;51.934;10.330;2023-03-01T13:06:11;9.73;;;5.97;;
24761;SDS011;12865;51.934;10.330;2023-03-01T13:09:10;9.85;;;6.63;;
24761;SDS011;12865;51.934;10.330;2023-03-01T13:12:41;7.07;;;6.13;;
24761;SDS011;12865;51.934;10.330;2023-03-01T13:15:33;8.07;;;5.78;;
24761;SDS011;12865;51.934;10.330;2023-03-01T13:21:08;8.80;;;6.05;;
24761;SDS011;12865;51.934;10.330;2023-03-01T13:23:54;9.95;;;6.20;;
24761;SDS011;12865;51.934;10.330;2023-03-01T13:29:51;9.00;;;6.07;;
24761;SDS011;12865;51.934;10.330;2023-03-01T13:32:51;8.18;;;6.47;;
24761;SDS011;12865;51.934;10.330;2023-03-01T13:35:43;7.40;;;5.50;;
24761;SDS011;12865;51.934;10.330;2023-03-01T13:38:37;8.43;;;6.18;;
24761;SDS011;12865;51.934;10.330;2023-03-01T13:44:33;7.68;;;5.75;;
24761;SDS011;12865;51.934;10.330;2023-03-01T13:47:21;10.00;;;6.30;;
24761;SDS011;12865;51.934;10.330;2023-03-01T13:50:07;15.18;;;10.95;;
24761;SDS011;12865;51.934;10.330;2023-03-01T13:53:06;8.27;;;6.30;;
24761;SDS011;12865;51.934;10.330;2023-03-01T13:55:54;7.35;;;5.55;;
24761;SDS011;12865;51.934;10.330;2023-03-01T14:01:38;9.05;;;5.63;;
24761;SDS011;12865;51.934;10.330;2023-03-01T14:04:28;10.23;;;6.97;;
24761;SDS011;12865;51.934;10.330;2023-03-01T14:07:21;8.90;;;5.72;;
24761;SDS011;12865;51.934;10.330;2023-03-01T14:10:14;10.63;;;6.53;;
24761;SDS011;12865;51.934;10.330;2023-03-01T14:13:14;8.68;;;6.35;;
24761;SDS011;12865;51.934;10.330;2023-03-01T14:16:08;8.48;;;6.28;;
24761;SDS011;12865;51.934;10.330;2023-03-01T14:19:24;7.82;;;5.82;;
24761;SDS011;12865;51.934;10.330;2023-03-01T14:25:20;9.50;;;6.32;;
24761;SDS011;12865;51.934;10.330;2023-03-01T14:31:36;9.02;;;6.57;;
24761;SDS011;12865;51.934;10.330;2023-03-01T14:34:24;9.02;;;6.65;;
24761;SDS011;12865;51.934;10.330;2023-03-01T14:37:11;8.13;;;6.75;;
24761;SDS011;12865;51.934;10.330;2023-03-01T14:40:03;8.75;;;6.78;;
24761;SDS011;12865;51.934;10.330;2023-03-01T14:42:50;8.30;;;6.75;;
24761;SDS011;12865;51.934;10.330;2023-03-01T14:45:36;7.53;;;6.18;;
24761;SDS011;12865;51.934;10.330;2023-03-01T14:48:22;8.75;;;7.22;;
24761;SDS011;12865;51.934;10.330;2023-03-01T14:51:09;9.60;;;6.38;;
24761;SDS011;12865;51.934;10.330;2023-03-01T14:53:57;8.27;;;6.22;;
24761;SDS011;12865;51.934;10.330;2023-03-01T14:56:43;9.45;;;6.32;;
24761;SDS011;12865;51.934;10.330;2023-03-01T14:59:32;9.63;;;6.50;;
24761;SDS011;12865;51.934;10.330;2023-03-01T15:02:20;7.93;;;6.82;;
24761;SDS011;12865;51.934;10.330;2023-03-01T15:05:08;7.95;;;6.88;;
24761;SDS011;12865;51.934;10.330;2023-03-01T15:07:55;7.95;;;6.57;;
24761;SDS011;12865;51.934;10.330;2023-03-01T15:10:54;9.10;;;6.07;;
24761;SDS011;12865;51.934;10.330;2023-03-01T15:13:42;8.95;;;5.90;;
24761;SDS011;12865;51.934;10.330;2023-03-01T15:16:31;10.00;;;7.10;;
24761;SDS011;12865;51.934;10.330;2023-03-01T15:19:18;9.20;;;6.47;;
24761;SDS011;12865;51.934;10.330;2023-03-01T15:22:04;9.20;;;6.80;;
24761;SDS011;12865;51.934;10.330;2023-03-01T15:24:57;8.32;;;6.57;;
24761;SDS011;12865;51.934;10.330;2023-03-01T15:27:46;9.23;;;6.30;;
24761;SDS011;12865;51.934;10.330;2023-03-01T15:30:34;9.13;;;6.07;;
24761;SDS011;12865;51.934;10.330;2023-03-01T15:36:31;8.52;;;6.43;;
24761;SDS011;12865;51.934;10.330;2023-03-01T15:48:01;6.95;;;5.85;;
24761;SDS011;12865;51.934;10.330;2023-03-01T15:50:56;8.38;;;6.85;;
24761;SDS011;12865;51.934;10.330;2023-03-01T15:53:45;8.18;;;6.13;;
24761;SDS011;12865;51.934;10.330;2023-03-01T15:56:35;9.88;;;7.57;;
24761;SDS011;12865;51.934;10.330;2023-03-01T15:59:21;7.63;;;6.30;;
24761;SDS011;12865;51.934;10.330;2023-03-01T16:02:10;10.80;;;6.25;;
24761;SDS011;12865;51.934;10.330;2023-03-01T16:04:58;8.48;;;6.68;;
24761;SDS011;12865;51.934;10.330;2023-03-01T16:07:43;7.65;;;5.68;;
24761;SDS011;12865;51.934;10.330;2023-03-01T16:10:29;10.05;;;5.68;;
24761;SDS011;12865;51.934;10.330;2023-03-01T16:13:16;7.80;;;6.45;;
24761;SDS011;12865;51.934;10.330;2023-03-01T16:16:02;9.98;;;6.78;;
24761;SDS011;12865;51.934;10.330;2023-03-01T16:18:49;10.25;;;6.72;;
24761;SDS011;12865;51.934;10.330;2023-03-01T16:21:35;11.73;;;6.93;;
24761;SDS011;12865;51.934;10.330;2023-03-01T16:24:20;7.95;;;6.32;;
24761;SDS011;12865;51.934;10.330;2023-03-01T16:27:06;10.23;;;7.55;;
24761;SDS011;12865;51.934;10.330;2023-03-01T16:29:52;9.57;;;7.38;;
24761;SDS011;12865;51.934;10.330;2023-03-01T16:32:41;8.82;;;7.18;;
24761;SDS011;12865;51.934;10.330;2023-03-01T16:35:28;10.88;;;8.30;;
24761;SDS011;12865;51.934;10.330;2023-03-01T16:38:14;8.52;;;6.82;;
24761;SDS011;12865;51.934;10.330;2023-03-01T16:41:00;8.55;;;7.05;;
24761;SDS011;12865;51.934;10.330;2023-03-01T16:43:46;8.68;;;6.88;;
24761;SDS011;12865;51.934;10.330;2023-03-01T16:46:32;10.55;;;6.78;;
24761;SDS011;12865;51.934;10.330;2023-03-01T16:49:17;8.02;;;6.78;;
24761;SDS011;12865;51.934;10.330;2023-03-01T16:52:03;9.32;;;6.82;;
24761;SDS011;12865;51.934;10.330;2023-03-01T16:54:49;11.95;;;6.53;;
24761;SDS011;12865;51.934;10.330;2023-03-01T16:57:35;10.25;;;7.35;;
24761;SDS011;12865;51.934;10.330;2023-03-01T17:00:22;9.00;;;7.20;;
24761;SDS011;12865;51.934;10.330;2023-03-01T17:03:08;12.13;;;7.43;;
24761;SDS011;12865;51.934;10.330;2023-03-01T17:05:53;13.68;;;9.35;;
24761;SDS011;12865;51.934;10.330;2023-03-01T17:08:39;12.05;;;8.80;;
24761;SDS011;12865;51.934;10.330;2023-03-01T17:11:25;12.63;;;8.25;;
24761;SDS011;12865;51.934;10.330;2023-03-01T17:14:11;17.70;;;12.48;;
24761;SDS011;12865;51.934;10.330;2023-03-01T17:16:57;15.20;;;10.40;;
24761;SDS011;12865;51.934;10.330;2023-03-01T17:19:42;10.57;;;8.57;;
24761;SDS011;12865;51.934;10.330;2023-03-01T17:22:28;13.98;;;9.13;;
24761;SDS011;12865;51.934;10.330;2023-03-01T17:25:14;14.82;;;9.73;;
24761;SDS011;12865;51.934;10.330;2023-03-01T17:28:00;13.70;;;10.55;;
24761;SDS011;12865;51.934;10.330;2023-03-01T17:30:46;12.80;;;10.02;;
24761;SDS011;12865;51.934;10.330;2023-03-01T17:33:32;24.75;;;15.80;;
24761;SDS011;12865;51.934;10.330;2023-03-01T17:36:18;23.67;;;13.80;;
24761;SDS011;12865;51.934;10.330;2023-03-01T17:39:03;21.90;;;11.57;;
24761;SDS011;12865;51.934;10.330;2023-03-01T17:41:49;25.20;;;11.73;;
24761;SDS011;12865;51.934;10.330;2023-03-01T17:44:35;26.33;;;14.32;;
24761;SDS011;12865;51.934;10.330;2023-03-01T17:47:20;20.33;;;12.73;;
24761;SDS011;12865;51.934;10.330;2023-03-01T17:50:06;18.27;;;11.95;;
24761;SDS011;12865;51.934;10.330;2023-03-01T17:52:52;16.88;;;11.20;;
24761;SDS011;12865;51.934;10.330;2023-03-01T17:55:40;15.90;;;10.80;;
24761;SDS011;12865;51.934;10.330;2023-03-01T17:58:27;19.80;;;12.10;;
24761;SDS011;12865;51.934;10.330;2023-03-01T18:01:18;29.08;;;18.38;;
24761;SDS011;12865;51.934;10.330;2023-03-01T18:04:05;33.95;;;21.45;;
24761;SDS011;12865;51.934;10.330;2023-03-01T18:06:50;29.30;;;17.30;;
24761;SDS011;12865;51.934;10.330;2023-03-01T18:09:36;28.20;;;17.90;;
24761;SDS011;12865;51.934;10.330;2023-03-01T18:12:22;22.40;;;16.60;;
24761;SDS011;12865;51.934;10.330;2023-03-01T18:15:08;26.55;;;17.88;;
24761;SDS011;12865;51.934;10.330;2023-03-01T18:17:54;23.58;;;16.25;;
24761;SDS011;12865;51.934;10.330;2023-03-01T18:20:39;26.25;;;19.23;;